Flight Track Log - Related Links

Times and Time Zones

All times are in EDT time to prevent confusion due to time zone crossing. See the N680AN flight status page for this flight to view local times or setup timezone preferences in your user account.

Time Position Orientation Groundspeed Altitude Reporting Facility
EDT Latitude Longitude Course Direction KTS MPH feet Rate Location/Type
Sat 02:00:31 AM 39.8833 -104.5667 107° East 213 245 7,500  Level Denver TRACON
Sat 02:01:31 AM 39.8833 -104.4667 90° East 288 331 9,000 2,103 Climbing Denver TRACON
Sat 02:02:08 AM 39.8503 -104.4050 125° Southeast 300 345 10,900 2,204 Climbing Denver Center
Sat 02:03:00 AM 39.6570 -104.0208 113° Southeast  Level FlightAware Approximate
Sat 02:03:09 AM 39.8044 -104.2936 118° Southeast 361 415 12,600  Level Denver Center
Sat 02:04:00 AM 39.6038 -103.8614 113° Southeast  Level FlightAware Approximate
Sat 02:04:09 AM 39.7528 -104.1733 119° Southeast 384 442 15,500  Level Denver Center
Sat 02:05:00 AM 39.5566 -103.7064 107° East  Level FlightAware Approximate
Sat 02:05:10 AM 39.6986 -104.0475 119° Southeast 399 459 18,000  Level Denver Center
Sat 02:06:10 AM 39.6414 -103.9133 119° Southeast 421 484 20,300 2,231 Climbing Denver Center
Sat 02:07:11 AM 39.5831 -103.7714 118° Southeast 445 512 22,500 2,083 Climbing Denver Center
Sat 02:08:11 AM 39.5456 -103.6181 108° East 448 516 24,500 1,934 Climbing Denver Center
Sat 02:09:12 AM 39.5031 -103.4572 109° East 465 535 26,400 1,785 Climbing Denver Center
Sat 02:10:12 AM 39.4594 -103.2914 109° East 479 551 28,100 1,587 Climbing Denver Center
Sat 02:11:13 AM 39.4150 -103.1233 109° East 489 563 29,600 1,785 Climbing Denver Center
Sat 02:12:13 AM 39.3692 -102.9528 109° East 497 572 31,700 1,934 Climbing Denver Center
Sat 02:13:14 AM 39.3236 -102.7842 109° East 493 567 33,500 1,587 Climbing Denver Center
Sat 02:14:14 AM 39.2792 -102.6264 110° East 495 570 34,900 1,339 Climbing Denver Center
Sat 02:15:15 AM 39.2347 -102.4667 110° East 494 568 36,200 1,240 Climbing Denver Center
Sat 02:16:15 AM 39.1503 -102.2981 123° Southeast 504 580 37,400 1,050 Climbing Denver Center
Sat 02:17:15 AM 39.0661 -102.1631 129° Southeast 504 580 38,300 793 Climbing Denver Center
Sat 02:18:16 AM 38.9817 -102.0289 129° Southeast 504 580 39,000 347 Climbing Denver Center
Sat 02:19:16 AM 38.8825 -101.8719 129° Southeast 507 583 39,000  Level Denver Center
Sat 02:20:17 AM 38.7972 -101.7394 130° Southeast 506 582 39,000  Level Denver Center
Sat 02:21:17 AM 38.7117 -101.6044 129° Southeast 509 586 39,000  Level Denver Center
Sat 02:22:18 AM 38.6122 -101.4503 130° Southeast 504 580 39,000  Level Denver Center
Sat 02:23:18 AM 38.5267 -101.3186 130° Southeast 503 579 39,000  Level Denver Center
Sat 02:24:19 AM 38.4425 -101.1872 129° Southeast 500 575 39,000  Level Denver Center
Sat 02:25:19 AM 38.3569 -101.0561 130° Southeast 501 577 39,000  Level Denver Center
Sat 02:26:20 AM 38.2578 -100.9058 130° Southeast 497 572 39,000  Level Denver Center
Sat 02:27:20 AM 38.1731 -100.7764 130° Southeast 495 570 39,000  Level Denver Center
Sat 02:28:20 AM 38.0856 -100.6456 130° Southeast 503 579 39,000  Level Denver Center
Sat 02:29:12 AM 37.9969 -100.5106 130° Southeast 507 583 39,000  Level Kansas City Center
Sat 02:30:12 AM 37.9078 -100.3761 130° Southeast 514 592 39,000  Level Kansas City Center
Sat 02:31:14 AM 37.8183 -100.2433 130° Southeast 515 593 39,000  Level Kansas City Center
Sat 02:32:15 AM 37.7289 -100.1103 130° Southeast 516 594 39,000  Level Kansas City Center
Sat 02:33:15 AM 37.6264 -99.9531 129° Southeast 517 595 39,000  Level Kansas City Center
Sat 02:34:13 AM 37.5364 -99.8206 131° Southeast 516 594 39,000  Level Kansas City Center
Sat 02:35:16 AM 37.4467 -99.6897 131° Southeast 515 593 39,000  Level Kansas City Center
Sat 02:36:14 AM 37.3581 -99.5567 130° Southeast 517 595 39,000  Level Kansas City Center
Sat 02:37:14 AM 37.2694 -99.4275 131° Southeast 514 592 39,000  Level Kansas City Center
Sat 02:38:15 AM 37.1753 -99.2878 130° Southeast 518 596 39,000  Level Kansas City Center
Sat 02:39:17 AM 37.0806 -99.1506 131° Southeast 518 596 39,000  Level Kansas City Center
Sat 02:40:18 AM 36.9861 -99.0144 131° Southeast 516 594 39,000  Level Kansas City Center
Sat 02:41:16 AM 36.8917 -98.8769 131° Southeast 518 596 39,000  Level Kansas City Center
Sat 02:42:18 AM 36.7956 -98.7406 131° Southeast 519 597 39,000  Level Kansas City Center
Sat 02:43:18 AM 36.7011 -98.6056 131° Southeast 515 593 39,000  Level Kansas City Center
Sat 02:44:20 AM 36.6056 -98.4703 131° Southeast 515 593 39,000  Level Kansas City Center
Sat 02:45:19 AM 36.5117 -98.3381 131° Southeast 510 587 39,000  Level Kansas City Center
Sat 02:46:19 AM 36.4169 -98.2036 131° Southeast 512 589 39,000  Level Kansas City Center
Sat 02:47:20 AM 36.3219 -98.0697 131° Southeast 514 592 39,000  Level Kansas City Center
Sat 02:48:17 AM 36.2314 -97.9417 131° Southeast 512 589 39,000  Level Kansas City Center
Sat 02:49:19 AM 36.1364 -97.8117 132° Southeast 510 587 39,000  Level Kansas City Center
Sat 02:50:20 AM 36.0428 -97.6800 131° Southeast 510 587 39,000  Level Kansas City Center
Sat 02:51:18 AM 35.9486 -97.5483 131° Southeast 511 588 39,000  Level Kansas City Center
Sat 02:52:20 AM 35.8528 -97.4164 132° Southeast 512 589 39,000  Level Kansas City Center
Sat 02:53:21 AM 35.7567 -97.2839 132° Southeast 514 592 39,000  Level Kansas City Center
Sat 02:54:22 AM 35.6594 -97.1517 132° Southeast 515 593 39,000  Level Kansas City Center
Sat 02:55:21 AM 35.5619 -97.0181 132° Southeast 518 596 39,000  Level Kansas City Center
Sat 02:56:27 AM 35.4447 -96.8631 133° Southeast 517 595 39,000  Level Fort Worth Center
Sat 02:57:27 AM 35.3397 -96.7214 132° Southeast 517 595 39,000  Level Fort Worth Center
Sat 02:58:27 AM 35.2431 -96.5925 133° Southeast 517 595 39,000  Level Fort Worth Center
Sat 02:59:27 AM 35.1461 -96.4639 133° Southeast 517 595 39,000  Level Fort Worth Center
Sat 03:00:27 AM 35.0492 -96.3383 133° Southeast 517 595 39,000  Level Fort Worth Center
Sat 03:01:27 AM 34.9542 -96.2103 132° Southeast 517 595 39,000  Level Fort Worth Center
Sat 03:02:27 AM 34.8589 -96.0825 132° Southeast 517 595 39,000  Level Fort Worth Center
Sat 03:03:27 AM 34.7658 -95.9600 133° Southeast 511 588 39,000  Level Fort Worth Center
Sat 03:04:27 AM 34.6706 -95.8381 134° Southeast 506 582 39,000  Level Fort Worth Center
Sat 03:05:27 AM 34.5772 -95.7161 133° Southeast 499 574 39,000  Level Fort Worth Center
Sat 03:06:27 AM 34.4836 -95.5944 133° Southeast 499 574 39,000  Level Fort Worth Center
Sat 03:07:27 AM 34.4028 -95.4881 133° Southeast 489 563 39,000  Level Fort Worth Center
Sat 03:08:27 AM 34.3111 -95.3694 133° Southeast 489 563 39,000  Level Fort Worth Center
Sat 03:09:27 AM 34.2217 -95.2508 132° Southeast 484 557 39,000  Level Fort Worth Center
Sat 03:10:27 AM 34.1297 -95.1328 133° Southeast 484 557 39,000  Level Fort Worth Center
Sat 03:11:27 AM 34.0378 -95.0150 133° Southeast 484 557 39,000  Level Fort Worth Center
Sat 03:12:27 AM 33.9478 -94.8972 133° Southeast 484 557 39,000  Level Fort Worth Center
Sat 03:13:27 AM 33.8536 -94.7797 134° Southeast 489 563 39,000  Level Fort Worth Center
Sat 03:14:27 AM 33.7614 -94.6653 134° Southeast 489 563 39,000  Level Fort Worth Center
Sat 03:15:27 AM 33.6692 -94.5483 133° Southeast 484 557 39,000  Level Fort Worth Center
Sat 03:16:27 AM 33.5786 -94.4292 132° Southeast 484 557 39,000  Level Fort Worth Center
Sat 03:17:27 AM 33.4839 -94.3128 134° Southeast 484 557 39,000  Level Fort Worth Center
Sat 03:18:27 AM 33.3892 -94.1967 134° Southeast 484 557 39,000  Level Fort Worth Center
Sat 03:19:27 AM 33.2833 -94.0614 133° Southeast 494 568 39,000  Level Fort Worth Center
Sat 03:20:27 AM 33.1842 -93.9411 135° Southeast 501 577 39,000  Level Fort Worth Center
Sat 03:21:27 AM 33.0889 -93.8183 133° Southeast 501 577 39,000  Level Fort Worth Center
Sat 03:22:27 AM 32.9956 -93.6983 133° Southeast 501 577 39,000  Level Fort Worth Center
Sat 03:23:27 AM 32.9003 -93.5786 133° Southeast 496 571 39,000  Level Fort Worth Center
Sat 03:24:27 AM 32.8047 -93.4614 134° Southeast 496 571 39,000  Level Fort Worth Center
Sat 03:26:21 AM 32.6222 -93.2414 135° Southeast 500 575 39,000  Level Houston Center
Sat 03:27:22 AM 32.5244 -93.1239 135° Southeast 499 574 39,000  Level Houston Center
Sat 03:28:22 AM 32.4272 -93.0058 134° Southeast 497 572 39,000  Level Houston Center
Sat 03:29:22 AM 32.3297 -92.8889 135° Southeast 497 572 39,000  Level Houston Center
Sat 03:30:22 AM 32.2314 -92.7706 134° Southeast 502 578 39,000  Level Houston Center
Sat 03:31:22 AM 32.1308 -92.6497 134° Southeast 502 578 39,000  Level Houston Center
Sat 03:32:22 AM 32.0319 -92.5333 135° Southeast 502 578 39,000  Level Houston Center
Sat 03:33:22 AM 31.9339 -92.4142 134° Southeast 504 580 39,000  Level Houston Center
Sat 03:34:23 AM 31.8367 -92.2956 134° Southeast 504 580 39,000  Level Houston Center
Sat 03:35:23 AM 31.7517 -92.1561 126° Southeast 519 597 39,000  Level Houston Center
Sat 03:36:23 AM 31.6772 -92.0056 120° Southeast 531 611 39,000  Level Houston Center
Sat 03:37:23 AM 31.6058 -91.8539 119° Southeast 529 609 39,000  Level Houston Center
Sat 03:38:23 AM 31.5339 -91.7028 119° Southeast 528 608 39,000  Level Houston Center
Sat 03:39:23 AM 31.4617 -91.5528 119° Southeast 528 608 39,000  Level Houston Center
Sat 03:40:23 AM 31.3894 -91.4031 119° Southeast 527 606 39,000  Level Houston Center
Sat 03:41:24 AM 31.3172 -91.2531 119° Southeast 528 608 39,000  Level Houston Center
Sat 03:42:24 AM 31.2444 -91.1042 120° Southeast 525 604 39,000  Level Houston Center
Sat 03:43:24 AM 31.1750 -90.9561 119° Southeast 522 601 39,000  Level Houston Center
Sat 03:44:24 AM 31.1022 -90.8103 120° Southeast 521 600 39,000  Level Houston Center
Sat 03:45:24 AM 31.0325 -90.6628 119° Southeast 519 597 39,000  Level Houston Center
Sat 03:46:24 AM 30.9611 -90.5178 120° Southeast 518 596 39,000  Level Houston Center
Sat 03:47:25 AM 30.8889 -90.3725 120° Southeast 519 597 39,000  Level Houston Center
Sat 03:48:25 AM 30.8175 -90.2269 120° Southeast 518 596 39,000  Level Houston Center
Sat 03:49:25 AM 30.7456 -90.0822 120° Southeast 517 595 39,000  Level Houston Center
Sat 03:50:25 AM 30.6722 -89.9369 120° Southeast 518 596 39,000  Level Houston Center
Sat 03:51:25 AM 30.6000 -89.7917 120° Southeast 515 593 39,000  Level Houston Center
Sat 03:52:25 AM 30.5411 -89.6736 120° Southeast 519 597 39,000  Level Houston Center
Sat 03:53:26 AM 30.4661 -89.5267 121° Southeast 518 596 39,000  Level Houston Center
Sat 03:54:26 AM 30.3925 -89.3808 120° Southeast 520 598 39,000  Level Houston Center
Sat 03:55:26 AM 30.3189 -89.2356 120° Southeast 521 600 39,000  Level Houston Center
Sat 03:56:26 AM 30.2442 -89.0900 121° Southeast 525 604 39,000  Level Houston Center
Sat 03:57:26 AM 30.1706 -88.9472 121° Southeast 518 596 39,000  Level Houston Center
Sat 03:58:27 AM 30.0969 -88.8039 121° Southeast 518 596 39,000  Level Houston Center
Sat 03:59:27 AM 30.0111 -88.6386 121° Southeast 521 600 39,000  Level Houston Center
Sat 04:00:27 AM 29.9361 -88.4933 121° Southeast 528 608 39,000  Level Houston Center
Sat 04:01:27 AM 29.8597 -88.3497 121° Southeast 529 609 39,000  Level Houston Center
Sat 04:02:27 AM 29.7833 -88.2042 121° Southeast 533 613 39,000  Level Houston Center
Sat 04:03:28 AM 29.7075 -88.0594 121° Southeast 531 611 39,000  Level Houston Center
Sat 04:04:28 AM 29.6306 -87.9136 121° Southeast 536 617 39,000  Level Houston Center
Sat 04:05:28 AM 29.5547 -87.7692 121° Southeast 532 612 39,000  Level Houston Center
Sat 04:06:28 AM 29.4786 -87.6261 121° Southeast 528 608 39,000  Level Houston Center
Sat 04:07:28 AM 29.4031 -87.4819 121° Southeast 528 608 39,000  Level Houston Center
Sat 04:08:29 AM 29.3331 -87.3508 121° Southeast 531 611 39,000  Level Houston Center
Sat 04:08:55 AM 29.2900 -87.2661 120° Southeast 523 602 39,000  Level Jacksonville Center
Sat 04:09:55 AM 29.2153 -87.1247 121° Southeast 528 608 39,000  Level Jacksonville Center
Sat 04:10:55 AM 29.1367 -86.9811 122° Southeast 528 608 39,000  Level Jacksonville Center
Sat 04:11:55 AM 29.0594 -86.8403 122° Southeast 528 608 39,000  Level Jacksonville Center
Sat 04:12:55 AM 28.9825 -86.6947 121° Southeast 528 608 39,000  Level Jacksonville Center
Sat 04:13:55 AM 28.9033 -86.5519 122° Southeast 533 613 39,000  Level Jacksonville Center
Sat 04:14:55 AM 28.8258 -86.4069 121° Southeast 533 613 39,000  Level Jacksonville Center
Sat 04:15:55 AM 28.7464 -86.2597 122° Southeast 533 613 39,000  Level Jacksonville Center
Sat 04:16:55 AM 28.6667 -86.1150 122° Southeast 533 613 39,000  Level Jacksonville Center
Sat 04:17:55 AM 28.5867 -85.9706 122° Southeast 533 613 39,000  Level Jacksonville Center
Sat 04:18:55 AM 28.5047 -85.8239 122° Southeast 538 619 39,000  Level Jacksonville Center
Sat 04:19:55 AM 28.4264 -85.6800 122° Southeast 545 627 39,000  Level Jacksonville Center
Sat 04:20:55 AM 28.3458 -85.5411 123° Southeast 545 627 39,000  Level Jacksonville Center
Sat 04:21:55 AM 28.2675 -85.3931 121° Southeast 540 621 39,000  Level Jacksonville Center
Sat 04:24:17 AM 28.0869 -85.0642 122° Southeast 528 608 39,000  Level Miami Center
Sat 04:25:17 AM 28.0097 -84.9175 121° Southeast 528 608 39,000  Level Miami Center
Sat 04:26:18 AM 27.9244 -84.7661 122° Southeast 544 626 39,000  Level Miami Center
Sat 04:27:18 AM 27.8528 -84.6250 120° Southeast 549 632 39,000  Level Miami Center
Sat 04:28:15 AM 27.7794 -84.4794 120° Southeast 535 616 39,000  Level Miami Center
Sat 04:29:15 AM 27.7078 -84.3364 119° Southeast 530 610 39,000  Level Miami Center
Sat 04:30:15 AM 27.6317 -84.1933 121° Southeast 530 610 39,000  Level Miami Center
Sat 04:31:18 AM 27.5594 -84.0531 120° Southeast 530 610 39,000  Level Miami Center
Sat 04:32:16 AM 27.4894 -83.9106 119° Southeast 530 610 39,000  Level Miami Center
Sat 04:33:15 AM 27.4169 -83.7683 120° Southeast 530 610 39,000  Level Miami Center
Sat 04:34:15 AM 27.3444 -83.6286 120° Southeast 530 610 39,000  Level Miami Center
Sat 04:35:15 AM 27.2656 -83.4861 122° Southeast 530 610 39,000  Level Miami Center
Sat 04:36:17 AM 27.1925 -83.3444 120° Southeast 530 610 39,000  Level Miami Center
Sat 04:37:17 AM 27.1172 -83.2072 122° Southeast 530 610 39,000  Level Miami Center
Sat 04:38:15 AM 27.0442 -83.0658 120° Southeast 530 610 39,000  Level Miami Center
Sat 04:39:16 AM 26.9708 -82.9269 121° Southeast 530 610 39,000  Level Miami Center
Sat 04:40:18 AM 26.9008 -82.8022 122° Southeast 525 604 39,000  Level Miami Center
Sat 04:41:15 AM 26.8269 -82.6658 121° Southeast 525 604 39,000 -908 Level Miami Center
Sat 04:42:17 AM 26.7511 -82.5250 121° Southeast 525 604 37,200 -1,983 Descending Miami Center
Sat 04:43:16 AM 26.6772 -82.3914 122° Southeast 525 604 35,000 -2,218 Descending Miami Center
Sat 04:44:16 AM 26.6069 -82.2581 120° Southeast 513 590 32,800 -2,182 Descending Miami Center
Sat 04:45:17 AM 26.5325 -82.1247 122° Southeast 513 590 30,600 -2,050 Descending Miami Center
Sat 04:46:16 AM 26.4639 -81.9986 121° Southeast 503 579 28,700 -2,085 Descending Miami Center
Sat 04:47:15 AM 26.3953 -81.8706 121° Southeast 492 566 26,500 -2,200 Descending Miami Center
Sat 04:48:16 AM 26.3286 -81.7494 122° Southeast 479 551 24,300 -2,200 Descending Miami Center
Sat 04:49:15 AM 26.2614 -81.6311 122° Southeast 466 536 22,100 -2,182 Descending Miami Center
Sat 04:50:17 AM 26.1983 -81.5175 122° Southeast 445 512 19,900 -2,098 Descending Miami Center
Sat 04:51:18 AM 26.1392 -81.4064 121° Southeast 434 499 17,800 -2,132 Descending Miami Center
Sat 04:52:18 AM 26.0797 -81.2978 121° Southeast 420 483 15,600 -2,336 Descending Miami Center
Sat 04:53:11 AM 26.0203 -81.1983 124° Southeast 394 453 13,400 -2,313 Descending Miami Center
Sat 04:53:54 AM 25.9803 -81.1300 123° Southeast 381 438 11,900 -2,031 Descending Miami Center
Sat 04:54:16 AM 25.9667 -81.0972 115° Southeast 397 457 11,200 -1,527 Descending Miami Center
Sat 04:54:49 AM 25.9372 -81.0361 118° Southeast 359 413 10,500 -1,000 Descending Miami Center
Sat 04:55:16 AM 25.9258 -80.9964 108° East 376 433 10,200 -310 Descending Miami Center
Sat 04:55:47 AM 25.9022 -80.9447 117° Southeast 306 352 10,200 -484 Level Miami Center
Sat 04:56:18 AM 25.8925 -80.9122 108° East 334 384 9,700 -1,355 Descending Miami Center
Sat 04:56:49 AM 25.8708 -80.8653 117° Southeast 278 320 8,800 -1,525 Descending Miami Center
Sat 04:57:17 AM 25.8614 -80.8303 107° East 303 349 8,200 -1,180 Descending Miami Center
Sat 04:57:50 AM 25.8378 -80.7833 119° Southeast 284 327 7,600 -1,241 Descending Miami Center
Sat 04:58:15 AM 25.8281 -80.7531 110° East 283 326 7,000 -1,300 Descending Miami Center
Sat 04:58:50 AM 25.8022 -80.7039 120° Southeast 275 316 6,300 -968 Descending Miami Center
Sat 04:59:17 AM 25.7967 -80.6758 102° East 277 319 6,000 -700 Descending Miami Center
Sat 04:59:50 AM 25.7831 -80.6292 108° East 251 289 5,600 -689 Descending Miami Center
Sat 05:00:18 AM 25.7881 -80.6042 77° East 259 298 5,300 -1,200 Descending Miami Center
Sat 05:00:50 AM 25.7872 -80.5556 91° East 231 266 4,400 -1,448 Descending Miami Center
Sat 05:01:16 AM 25.7900 -80.5233 85° East 243 280 3,900 -1,105 Descending Miami Center
Sat 05:02:06 AM 25.7914 -80.4750 88° East 205 236 3,000 -973 Descending Miami Center
Sat 05:03:07 AM 25.7947 -80.4219 86° East 155 178 2,100 -885 Descending Miami Center

Login

Don't have an account? Register now (free) for customized features, flight alerts, and more!